createdAt,value
2018-06-05T00:00:41.573Z,14.2
2018-06-05T00:01:31.957Z,14.2
2018-06-05T00:02:21.721Z,14.2
2018-06-05T00:03:12.184Z,14.2
2018-06-05T00:04:02.149Z,14.3
2018-06-05T00:04:51.943Z,14.3
2018-06-05T00:05:42.526Z,14.3
2018-06-05T00:06:32.327Z,14.3
2018-06-05T00:07:22.368Z,14.2
2018-06-05T00:08:11.895Z,14.2
2018-06-05T00:09:02.826Z,14.2
2018-06-05T00:09:52.629Z,14.3
2018-06-05T00:10:42.375Z,14.3
2018-06-05T00:11:33.007Z,14.3
2018-06-05T00:12:22.800Z,14.2
2018-06-05T00:13:13.118Z,14.3
2018-06-05T00:14:03.177Z,14.3
2018-06-05T00:14:52.984Z,14.3
2018-06-05T00:15:43.023Z,14.4
2018-06-05T00:16:33.368Z,14.3
2018-06-05T00:17:23.421Z,14.4
2018-06-05T00:18:13.499Z,14.3
2018-06-05T00:19:03.569Z,14.4
2018-06-05T00:19:53.650Z,14.4
2018-06-05T00:20:43.694Z,14.5
2018-06-05T00:21:33.774Z,14.6
2018-06-05T00:22:23.531Z,14.6
2018-06-05T00:23:13.042Z,14.9
2018-06-05T00:24:03.956Z,15.1
2018-06-05T00:24:54.009Z,15.1
2018-06-05T00:25:44.119Z,15.1
2018-06-05T00:26:33.854Z,15
2018-06-05T00:27:23.630Z,14.8
2018-06-05T00:28:14.259Z,14.7
2018-06-05T00:29:04.055Z,14.6
2018-06-05T00:29:53.837Z,14.6
2018-06-05T00:30:44.183Z,14.5
2018-06-05T00:31:34.524Z,14.4
2018-06-05T00:32:24.308Z,14.3
2018-06-05T00:33:14.694Z,14.2
2018-06-05T00:34:04.166Z,14.1
2018-06-05T00:34:54.491Z,14
2018-06-05T00:35:44.546Z,14
2018-06-05T00:36:34.696Z,14.1
2018-06-05T00:37:24.994Z,14.1
2018-06-05T00:38:14.745Z,14.1
2018-06-05T00:39:04.808Z,14.1
2018-06-05T00:39:55.174Z,14.1
2018-06-05T00:40:44.401Z,13.9
2018-06-05T00:41:35.328Z,13.9
2018-06-05T00:42:25.369Z,13.9
2018-06-05T00:43:15.153Z,13.9
2018-06-05T00:44:04.910Z,14
2018-06-05T00:44:55.007Z,13.9
2018-06-05T00:45:45.069Z,14.1
2018-06-05T00:46:35.133Z,14.1
2018-06-05T00:47:25.820Z,14.1
2018-06-05T00:48:15.513Z,14.1
2018-06-05T00:49:05.882Z,14
2018-06-05T00:49:55.951Z,14
2018-06-05T00:50:45.444Z,13.9
2018-06-05T00:51:35.504Z,13.9
2018-06-05T00:52:25.824Z,13.8
2018-06-05T00:53:15.898Z,13.9
2018-06-05T00:54:05.990Z,13.8
2018-06-05T00:54:56.067Z,13.8
2018-06-05T00:55:46.372Z,13.8
2018-06-05T00:56:36.455Z,13.8
2018-06-05T00:57:25.967Z,13.8
2018-06-05T00:58:16.012Z,13.8
2018-06-05T00:59:06.630Z,13.8
2018-06-05T00:59:56.682Z,13.8
2018-06-05T01:00:46.232Z,13.8
2018-06-05T01:01:36.549Z,13.8
2018-06-05T01:02:26.622Z,13.8
2018-06-05T01:03:16.969Z,13.8
2018-06-05T01:04:06.216Z,13.8
2018-06-05T01:04:57.115Z,13.7
2018-06-05T01:05:46.911Z,13.6
2018-06-05T01:06:36.676Z,13.6
2018-06-05T01:07:26.997Z,13.6
2018-06-05T01:08:17.356Z,13.6
2018-06-05T01:09:06.856Z,13.6
2018-06-05T01:09:57.500Z,13.6
2018-06-05T01:10:47.275Z,13.6
2018-06-05T01:11:37.041Z,13.6
2018-06-05T01:12:27.687Z,13.5
2018-06-05T01:13:17.143Z,13.5
2018-06-05T01:14:07.523Z,13.5
2018-06-05T01:14:57.868Z,13.6
2018-06-05T01:15:47.623Z,13.6
2018-06-05T01:16:37.701Z,13.6
2018-06-05T01:17:27.766Z,13.6
2018-06-05T01:18:17.535Z,13.6
2018-06-05T01:19:08.170Z,13.6
2018-06-05T01:19:58.295Z,13.6
2018-06-05T01:20:47.721Z,13.6
2018-06-05T01:21:38.059Z,13.6
2018-06-05T01:22:28.218Z,13.6
2018-06-05T01:23:17.936Z,13.6
2018-06-05T01:24:08.290Z,13.7
2018-06-05T01:24:57.796Z,13.7
2018-06-05T01:25:48.409Z,13.6
2018-06-05T01:26:38.730Z,13.6
2018-06-05T01:27:28.799Z,13.6
2018-06-05T01:28:18.302Z,13.8
2018-06-05T01:29:08.675Z,13.8
2018-06-05T01:29:58.753Z,13.8
2018-06-05T01:30:48.797Z,13.8
2018-06-05T01:31:39.202Z,13.8
2018-06-05T01:32:28.622Z,13.8
2018-06-05T01:33:18.980Z,13.8
2018-06-05T01:34:09.388Z,13.8
2018-06-05T01:34:59.405Z,13.7
2018-06-05T01:35:48.625Z,13.7
2018-06-05T01:36:38.913Z,13.6
2018-06-05T01:37:29.050Z,13.6
2018-06-05T01:38:18.840Z,13.6
2018-06-05T01:39:09.202Z,13.5
2018-06-05T01:39:59.217Z,13.5
2018-06-05T01:40:49.887Z,13.4
2018-06-05T01:41:39.445Z,13.4
2018-06-05T01:42:28.833Z,13.5
2018-06-05T01:43:19.277Z,13.4
2018-06-05T01:44:09.270Z,13.4
2018-06-05T01:44:59.419Z,13.4
2018-06-05T01:45:49.387Z,13.4
2018-06-05T01:46:39.837Z,13.4
2018-06-05T01:47:29.794Z,13.4
2018-06-05T01:48:20.155Z,13.4
2018-06-05T01:49:09.899Z,13.4
2018-06-05T01:50:00.534Z,13.4
2018-06-05T01:50:50.620Z,13.4
2018-06-05T01:51:40.689Z,13.4
2018-06-05T01:52:30.723Z,13.4
2018-06-05T01:53:20.496Z,13.3
2018-06-05T01:54:10.841Z,13.3
2018-06-05T01:55:01.004Z,13.3
2018-06-05T01:55:50.961Z,13.3
2018-06-05T01:56:41.062Z,13.3
2018-06-05T01:57:31.114Z,13.3
2018-06-05T01:58:20.882Z,13.4
2018-06-05T01:59:10.960Z,13.4
2018-06-05T02:00:01.026Z,13.4
2018-06-05T02:00:51.110Z,13.4
2018-06-05T02:01:41.157Z,13.4
2018-06-05T02:02:30.960Z,13.4
2018-06-05T02:03:21.276Z,13.3
2018-06-05T02:04:11.057Z,13.3
2018-06-05T02:05:01.407Z,13.4
2018-06-05T02:05:51.196Z,13.4
2018-06-05T02:06:41.512Z,13.4
2018-06-05T02:07:31.602Z,13.5
2018-06-05T02:08:21.701Z,13.5
2018-06-05T02:09:11.731Z,13.5
2018-06-05T02:10:01.788Z,13.6
2018-06-05T02:10:51.307Z,13.7
2018-06-05T02:11:41.058Z,13.6
2018-06-05T02:12:31.529Z,13.7
2018-06-05T02:13:21.495Z,13.8
2018-06-05T02:14:11.892Z,13.7
2018-06-05T02:15:02.528Z,13.6
2018-06-05T02:15:51.980Z,13.6
2018-06-05T02:16:41.838Z,13.6
2018-06-05T02:17:32.718Z,13.6
2018-06-05T02:18:22.195Z,13.6
2018-06-05T02:19:12.221Z,13.6
2018-06-05T02:20:02.293Z,13.6
2018-06-05T02:20:52.942Z,13.5
2018-06-05T02:21:42.708Z,13.5
2018-06-05T02:22:32.188Z,13.5
2018-06-05T02:23:23.096Z,13.4
2018-06-05T02:24:13.197Z,13.4
2018-06-05T02:25:02.964Z,13.4
2018-06-05T02:25:52.722Z,13.5
2018-06-05T02:26:43.139Z,13.4
2018-06-05T02:27:33.114Z,13.4
2018-06-05T02:28:22.897Z,13.3
2018-06-05T02:29:13.569Z,13.3
2018-06-05T02:30:03.344Z,13.3
2018-06-05T02:30:53.407Z,13.3
2018-06-05T02:31:43.481Z,13.3
2018-06-05T02:32:33.800Z,13.3
2018-06-05T02:33:23.035Z,13.3
2018-06-05T02:34:14.212Z,13.2
2018-06-05T02:35:03.704Z,13.1
2018-06-05T02:35:54.054Z,13.1
2018-06-05T02:36:43.831Z,13.1
2018-06-05T02:37:33.904Z,13.1
2018-06-05T02:38:23.979Z,13.1
2018-06-05T02:39:14.295Z,13.1
2018-06-05T02:40:04.100Z,13.1
2018-06-05T02:40:54.428Z,13.1
2018-06-05T02:41:44.501Z,13.1
2018-06-05T02:42:34.268Z,13.1
2018-06-05T02:43:24.595Z,13.1
2018-06-05T02:44:14.702Z,13.1
2018-06-05T02:45:04.779Z,13.1
2018-06-05T02:45:54.805Z,13.1
2018-06-05T02:46:44.062Z,13.1
2018-06-05T02:47:34.661Z,13.1
2018-06-05T02:48:25.000Z,13.1
2018-06-05T02:49:14.505Z,13.1
2018-06-05T02:50:04.843Z,13.2
2018-06-05T02:50:54.912Z,13.1
2018-06-05T02:51:45.334Z,13.2
2018-06-05T02:52:35.322Z,13.2
2018-06-05T02:53:25.387Z,13.1
2018-06-05T02:54:15.450Z,13.1
2018-06-05T02:55:05.556Z,13.1
2018-06-05T02:55:55.597Z,13.1
2018-06-05T02:56:45.076Z,13.1
2018-06-05T02:57:35.428Z,13.1
2018-06-05T02:58:25.199Z,13
2018-06-05T02:59:15.554Z,13
2018-06-05T03:00:05.664Z,12.9
2018-06-05T03:00:55.704Z,13
2018-06-05T03:01:46.082Z,12.9
2018-06-05T03:02:35.807Z,13
2018-06-05T03:03:25.588Z,13
2018-06-05T03:04:15.956Z,13
2018-06-05T03:05:05.705Z,13.1
2018-06-05T03:05:56.047Z,13.1
2018-06-05T03:06:45.572Z,13.1
2018-06-05T03:07:35.647Z,13.1
2018-06-05T03:08:25.973Z,13.1
2018-06-05T03:09:15.766Z,13.1
2018-06-05T03:10:06.393Z,13.1
2018-06-05T03:10:56.426Z,13.1
2018-06-05T03:11:46.524Z,13.2
2018-06-05T03:12:36.302Z,13.1
2018-06-05T03:13:26.941Z,13.2
2018-06-05T03:14:17.029Z,13.2
2018-06-05T03:15:06.219Z,13.2
2018-06-05T03:15:57.114Z,13.3
2018-06-05T03:16:46.660Z,13.3
2018-06-05T03:17:36.932Z,13.3
2018-06-05T03:18:27.025Z,13.3
2018-06-05T03:19:17.362Z,13.3
2018-06-05T03:20:07.422Z,13.3
2018-06-05T03:20:56.945Z,13.3
2018-06-05T03:21:47.612Z,13.3
2018-06-05T03:22:37.627Z,13.3
2018-06-05T03:23:27.132Z,13.4
2018-06-05T03:24:17.741Z,13.3
2018-06-05T03:25:07.819Z,13.4
2018-06-05T03:25:57.309Z,13.4
2018-06-05T03:26:47.951Z,13.4
2018-06-05T03:27:37.446Z,13.5
2018-06-05T03:28:27.783Z,13.5
2018-06-05T03:29:17.585Z,13.5
2018-06-05T03:30:07.647Z,13.5
2018-06-05T03:30:58.343Z,13.5
2018-06-05T03:31:48.413Z,13.5
2018-06-05T03:32:37.853Z,13.5
2018-06-05T03:33:28.444Z,13.5
2018-06-05T03:34:17.945Z,13.5
2018-06-05T03:35:08.575Z,13.6
2018-06-05T03:35:58.614Z,13.6
2018-06-05T03:36:48.672Z,13.6
2018-06-05T03:37:38.757Z,13.6
2018-06-05T03:38:28.818Z,13.7
2018-06-05T03:39:18.605Z,13.8
2018-06-05T03:40:08.667Z,13.8
2018-06-05T03:40:59.078Z,13.7
2018-06-05T03:41:49.077Z,13.7
2018-06-05T03:42:38.856Z,13.7
2018-06-05T03:43:29.203Z,13.7
2018-06-05T03:44:19.259Z,13.7
2018-06-05T03:45:09.321Z,13.6
2018-06-05T03:45:59.430Z,13.6
2018-06-05T03:46:49.164Z,13.7
2018-06-05T03:47:39.501Z,13.8
2018-06-05T03:48:29.292Z,13.8
2018-06-05T03:49:19.352Z,13.9
2018-06-05T03:50:09.709Z,13.9
2018-06-05T03:50:59.789Z,13.9
2018-06-05T03:51:49.556Z,13.9
2018-06-05T03:52:39.673Z,14
2018-06-05T03:53:29.688Z,14
2018-06-05T03:54:20.032Z,14.1
2018-06-05T03:55:09.254Z,14.1
2018-06-05T03:55:59.901Z,14.1
2018-06-05T03:56:50.237Z,14.2
2018-06-05T03:57:40.016Z,14.2
2018-06-05T03:58:30.353Z,14.2
2018-06-05T03:59:20.461Z,14.2
2018-06-05T04:00:10.520Z,14.2
2018-06-05T04:01:00.303Z,14.3
2018-06-05T04:01:50.048Z,14.3
2018-06-05T04:02:40.653Z,14.3
2018-06-05T04:03:30.718Z,14.3
2018-06-05T04:04:20.787Z,14.3
2018-06-05T04:05:10.607Z,14.4
2018-06-05T04:06:00.664Z,14.4
2018-06-05T04:06:51.029Z,14.4
2018-06-05T04:07:40.780Z,14.4
2018-06-05T04:08:31.125Z,14.4
2018-06-05T04:09:20.625Z,14.4
2018-06-05T04:10:10.967Z,14.4
2018-06-05T04:11:00.756Z,14.4
2018-06-05T04:11:50.821Z,14.4
2018-06-05T04:12:41.443Z,14.4
2018-06-05T04:13:31.493Z,14.4
2018-06-05T04:14:21.553Z,14.4
2018-06-05T04:15:11.641Z,14.4
2018-06-05T04:16:01.668Z,14.5
2018-06-05T04:16:51.757Z,14.6
2018-06-05T04:17:41.323Z,14.6
2018-06-05T04:18:31.880Z,14.6
2018-06-05T04:19:21.696Z,14.6
2018-06-05T04:20:11.177Z,14.7
2018-06-05T04:21:01.522Z,14.7
2018-06-05T04:21:51.572Z,14.8
2018-06-05T04:22:42.215Z,14.9
2018-06-05T04:23:32.252Z,14.9
2018-06-05T04:24:22.333Z,14.9
2018-06-05T04:25:12.476Z,14.9
2018-06-05T04:26:02.195Z,15
2018-06-05T04:26:52.564Z,15
2018-06-05T04:27:42.395Z,15
2018-06-05T04:28:32.343Z,15.1
2018-06-05T04:29:22.715Z,15.2
2018-06-05T04:30:11.967Z,15.2
2018-06-05T04:31:02.346Z,15.1
2018-06-05T04:31:52.610Z,15.1
2018-06-05T04:32:42.971Z,15.1
2018-06-05T04:33:32.768Z,15.1
2018-06-05T04:34:23.085Z,15.1
2018-06-05T04:35:13.183Z,15
2018-06-05T04:36:03.304Z,15.1
2018-06-05T04:36:53.284Z,15.1
2018-06-05T04:37:43.094Z,15.2
2018-06-05T04:38:33.421Z,15.2
2018-06-05T04:39:23.509Z,15.1
2018-06-05T04:40:13.534Z,15.1
2018-06-05T04:41:03.116Z,15.1
2018-06-05T04:41:53.683Z,15.1
2018-06-05T04:42:43.461Z,15.2
2018-06-05T04:43:33.528Z,15.2
2018-06-05T04:44:23.285Z,15.1
2018-06-05T04:45:13.368Z,15.3
2018-06-05T04:46:02.960Z,15.3
2018-06-05T04:46:53.501Z,15.4
2018-06-05T04:47:44.324Z,15.5
2018-06-05T04:48:34.182Z,15.6
2018-06-05T04:49:24.239Z,15.8
2018-06-05T04:50:14.309Z,15.8
2018-06-05T04:51:04.373Z,15.8
2018-06-05T04:51:54.413Z,15.9
2018-06-05T04:52:44.001Z,15.9
2018-06-05T04:53:34.553Z,15.9
2018-06-05T04:54:24.612Z,15.9
2018-06-05T04:55:14.743Z,16.1
2018-06-05T04:56:04.760Z,16.1
2018-06-05T04:56:54.042Z,16.2
2018-06-05T04:57:44.048Z,16.3
2018-06-05T04:58:34.664Z,16.5
2018-06-05T04:59:24.269Z,16.6
2018-06-05T05:00:14.806Z,16.5
2018-06-05T05:01:05.123Z,16.7
2018-06-05T05:01:55.185Z,16.7
2018-06-05T05:02:44.742Z,16.7
2018-06-05T05:03:35.046Z,16.8
2018-06-05T05:04:25.418Z,16.8
2018-06-05T05:05:15.203Z,16.7
2018-06-05T05:06:05.069Z,16.6
2018-06-05T05:06:54.768Z,16.8
2018-06-05T05:07:45.374Z,16.8
2018-06-05T05:08:35.734Z,16.9
2018-06-05T05:09:25.499Z,16.8
2018-06-05T05:10:15.577Z,16.8
2018-06-05T05:11:05.383Z,16.9
2018-06-05T05:11:55.961Z,16.9
2018-06-05T05:13:35.526Z,17.1
2018-06-05T05:14:26.175Z,17.2
2018-06-05T05:15:16.263Z,17.2
2018-06-05T05:16:06.050Z,17.1
2018-06-05T05:16:56.361Z,17.1
2018-06-05T05:17:46.127Z,17.1
2018-06-05T05:18:36.212Z,17.1
2018-06-05T05:19:25.989Z,17.3
2018-06-05T05:20:16.066Z,17.4
2018-06-05T05:21:06.707Z,17.6
2018-06-05T05:21:56.429Z,17.6
2018-06-05T05:22:46.794Z,17.7
2018-06-05T05:23:36.898Z,17.5
2018-06-05T05:24:26.666Z,17.6
2018-06-05T05:25:17.014Z,17.8
2018-06-05T05:26:07.070Z,17.9
2018-06-05T05:26:56.641Z,17.9
2018-06-05T05:27:47.192Z,17.9
2018-06-05T05:28:37.257Z,18
2018-06-05T05:29:27.315Z,18.1
2018-06-05T05:30:17.401Z,18.1
2018-06-05T05:31:07.198Z,18.3
2018-06-05T05:31:56.749Z,18.4
2018-06-05T05:32:46.998Z,18.4
2018-06-05T05:33:37.061Z,18.4
2018-06-05T05:34:27.702Z,18.4
2018-06-05T05:35:17.813Z,18.4
2018-06-05T05:36:07.845Z,18.3
2018-06-05T05:36:57.900Z,18.1
2018-06-05T05:37:47.983Z,18.4
2018-06-05T05:38:38.029Z,18.5
2018-06-05T05:40:18.123Z,18.5
2018-06-05T05:41:07.916Z,18.6
2018-06-05T05:41:58.012Z,18.6
2018-06-05T05:42:48.114Z,18.8
2018-06-05T05:43:38.412Z,18.8
2018-06-05T05:44:28.491Z,18.9
2018-06-05T05:45:18.238Z,18.9
2018-06-05T05:46:08.319Z,19
2018-06-05T05:46:58.371Z,19
2018-06-05T05:47:48.769Z,18.9
2018-06-05T05:48:38.798Z,18.8
2018-06-05T05:50:18.661Z,18.5
2018-06-05T05:51:08.424Z,18.9
2018-06-05T05:51:58.779Z,19.3
2018-06-05T05:52:48.571Z,19.2
2018-06-05T05:53:38.647Z,19.3
2018-06-05T05:54:29.237Z,19.1
2018-06-05T05:55:19.021Z,19
2018-06-05T05:56:09.343Z,19.3
2018-06-05T05:56:59.161Z,19.5
2018-06-05T05:57:49.491Z,19.6
2018-06-05T05:58:39.298Z,19.6
2018-06-05T05:59:29.654Z,19.5
2018-06-05T06:00:19.710Z,19.4
2018-06-05T06:01:09.786Z,19.4
2018-06-05T06:01:59.910Z,19.4
2018-06-05T06:02:49.867Z,19.7
2018-06-05T06:03:39.998Z,19.8
2018-06-05T06:04:30.014Z,20
2018-06-05T06:05:19.768Z,20.2
2018-06-05T06:06:09.575Z,20.4
2018-06-05T06:07:00.245Z,20.3
2018-06-05T06:07:49.996Z,19.9
2018-06-05T06:08:40.037Z,19.7
2018-06-05T06:09:30.377Z,19.7
2018-06-05T06:10:20.492Z,19.9
2018-06-05T06:11:10.517Z,20.2
2018-06-05T06:12:00.293Z,20.2
2018-06-05T06:12:50.664Z,19.9
2018-06-05T06:13:40.415Z,19.8
2018-06-05T06:14:30.759Z,19.6
2018-06-05T06:15:20.004Z,20.1
2018-06-05T06:16:10.922Z,20
2018-06-05T06:17:00.698Z,19.9
2018-06-05T06:17:50.744Z,19.9
2018-06-05T06:18:41.111Z,19.9
2018-06-05T06:19:31.142Z,20.3
2018-06-05T06:20:20.671Z,20.6
2018-06-05T06:21:10.716Z,20.9
2018-06-05T06:22:51.138Z,20.9
2018-06-05T06:23:41.480Z,20.4
2018-06-05T06:24:31.307Z,20.2
2018-06-05T06:25:21.590Z,20.6
2018-06-05T06:26:11.106Z,20.8
2018-06-05T06:27:01.920Z,21.2
2018-06-05T06:27:51.532Z,21.3
2018-06-05T06:28:41.558Z,21.4
2018-06-05T06:29:31.921Z,21.4
2018-06-05T06:30:22.001Z,21.6
2018-06-05T06:31:11.207Z,21.7
2018-06-05T06:32:01.839Z,21.4
2018-06-05T06:32:51.328Z,21.4
2018-06-05T06:33:42.278Z,21.3
2018-06-05T06:34:32.295Z,21.4
2018-06-05T06:35:21.793Z,21.3
2018-06-05T06:36:12.173Z,21.6
2018-06-05T06:37:01.936Z,21.9
2018-06-05T06:37:52.589Z,22.2
2018-06-05T06:38:42.352Z,22.2
2018-06-05T06:39:32.705Z,22.1
2018-06-05T06:40:22.807Z,22
2018-06-05T06:41:12.835Z,22
2018-06-05T06:42:02.610Z,21.9
2018-06-05T06:42:52.401Z,21.9
2018-06-05T06:43:42.201Z,21.7
2018-06-05T06:44:33.124Z,21.6
2018-06-05T06:45:23.152Z,21.6
2018-06-05T06:46:13.229Z,21.6
2018-06-05T06:47:03.314Z,21.8
2018-06-05T06:47:53.326Z,22.2
2018-06-05T06:48:44.076Z,22.5
2018-06-05T06:49:33.191Z,22.3
2018-06-05T06:50:22.684Z,22.2
2018-06-05T06:51:12.821Z,22.4
2018-06-05T06:52:03.678Z,22.1
2018-06-05T06:52:53.450Z,21.9
2018-06-05T06:53:43.605Z,22.1
2018-06-05T06:54:34.149Z,22.3
2018-06-05T06:55:23.947Z,22.3
2018-06-05T06:56:13.987Z,22.3
2018-06-05T06:57:03.768Z,22.3
2018-06-05T06:57:54.109Z,22.9
2018-06-05T06:58:44.190Z,23.2
2018-06-05T06:59:33.663Z,23.3
2018-06-05T07:00:23.990Z,23.3
2018-06-05T07:01:13.804Z,23.4
2018-06-05T07:02:04.437Z,23.8
2018-06-05T07:02:54.484Z,23.6
2018-06-05T07:03:43.612Z,23.6
2018-06-05T07:04:34.613Z,23.6
2018-06-05T07:05:24.394Z,23.9
2018-06-05T07:06:14.714Z,24.1
2018-06-05T07:07:04.797Z,24.2
2018-06-05T07:07:54.319Z,24.1
2018-06-05T07:08:44.907Z,24.4
2018-06-05T07:09:34.978Z,24.4
2018-06-05T07:10:25.061Z,24.4
2018-06-05T07:11:14.855Z,24.5
2018-06-05T07:12:05.190Z,24.3
2018-06-05T07:12:54.695Z,23.7
2018-06-05T07:13:45.312Z,23.8
2018-06-05T07:14:35.148Z,23.9
2018-06-05T07:15:25.418Z,24
2018-06-05T07:16:14.964Z,24.1
2018-06-05T07:17:05.794Z,24.6
2018-06-05T07:17:55.615Z,24.9
2018-06-05T07:18:45.692Z,24.9
2018-06-05T07:19:35.474Z,24.7
2018-06-05T07:20:25.825Z,24.7
2018-06-05T07:21:15.884Z,24.3
2018-06-05T07:22:05.942Z,24.4
2018-06-05T07:22:56.024Z,24.8
2018-06-05T07:23:45.814Z,24.8
2018-06-05T07:24:36.163Z,24.6
2018-06-05T07:25:26.218Z,24.3
2018-06-05T07:26:15.706Z,24.2
2018-06-05T07:27:06.372Z,24.3
2018-06-05T07:27:55.661Z,24.2
2018-06-05T07:28:46.187Z,24.3
2018-06-05T07:29:36.274Z,24.8
2018-06-05T07:30:27.032Z,25.2
2018-06-05T07:31:16.107Z,25.4
2018-06-05T07:32:06.448Z,25.6
2018-06-05T07:32:56.544Z,25.8
2018-06-05T07:33:46.359Z,25.8
2018-06-05T07:34:36.444Z,25.7
2018-06-05T07:35:26.490Z,25.3
2018-06-05T07:36:17.049Z,24.7
2018-06-05T07:37:06.647Z,25
2018-06-05T07:37:56.927Z,24.2
2018-06-05T07:38:47.243Z,24.5
2018-06-05T07:39:37.041Z,24.9
2018-06-05T07:40:27.095Z,25.3
2018-06-05T07:41:17.162Z,25.3
2018-06-05T07:42:07.529Z,25.3
2018-06-05T07:42:57.291Z,25.1
2018-06-05T07:43:47.341Z,25.5
2018-06-05T07:44:37.713Z,25.8
2018-06-05T07:45:27.471Z,25.9
2018-06-05T07:46:17.862Z,25.8
2018-06-05T07:47:07.906Z,26
2018-06-05T07:47:57.696Z,25.8
2018-06-05T07:48:48.020Z,26.1
2018-06-05T07:49:37.816Z,26.1
2018-06-05T07:50:28.181Z,26
2018-06-05T07:51:17.367Z,26.6
2018-06-05T07:52:08.299Z,26.6
2018-06-05T07:52:58.347Z,26.1
2018-06-05T07:53:47.861Z,26.5
2018-06-05T07:54:38.206Z,26.7
2018-06-05T07:55:28.459Z,25.9
2018-06-05T07:56:18.621Z,25.6
2018-06-05T07:57:08.658Z,26.6
2018-06-05T07:57:58.176Z,27
2018-06-05T07:58:48.809Z,26.8
2018-06-05T07:59:38.309Z,26.9
2018-06-05T08:00:28.676Z,26.4
2018-06-05T08:01:18.996Z,26.8
2018-06-05T08:02:09.058Z,26.8
2018-06-05T08:02:58.860Z,27.1
2018-06-05T08:03:49.218Z,27.4
2018-06-05T08:04:39.266Z,27.2
2018-06-05T08:05:29.021Z,27
2018-06-05T08:06:19.148Z,27.4
2018-06-05T08:07:09.533Z,27.1
2018-06-05T08:07:59.251Z,27
2018-06-05T08:08:49.300Z,27.1
2018-06-05T08:09:39.655Z,27
2018-06-05T08:10:29.697Z,27.1
2018-06-05T08:11:19.509Z,26.8
2018-06-05T08:12:09.868Z,27
2018-06-05T08:12:59.953Z,27.3
2018-06-05T08:13:49.424Z,27.4
2018-06-05T08:14:39.550Z,26.6
2018-06-05T08:15:29.632Z,26.2
2018-06-05T08:16:19.190Z,26.4
2018-06-05T08:17:09.689Z,26.8
2018-06-05T08:18:00.331Z,26.9
2018-06-05T08:18:50.353Z,26.6
2018-06-05T08:19:40.135Z,26.4
2018-06-05T08:20:30.495Z,26.2
2018-06-05T08:21:20.284Z,25.7
2018-06-05T08:22:10.351Z,26.3
2018-06-05T08:23:00.429Z,27.1
2018-06-05T08:23:50.016Z,27.3
2018-06-05T08:24:40.408Z,27.3
2018-06-05T08:25:30.321Z,27.4
2018-06-05T08:26:20.960Z,27.6
2018-06-05T08:27:10.977Z,27
2018-06-05T08:28:01.091Z,26.8
2018-06-05T08:28:51.163Z,26.9
2018-06-05T08:29:41.214Z,27.4
2018-06-05T08:30:31.237Z,27.6
2018-06-05T08:31:21.076Z,27.2
2018-06-05T08:32:11.390Z,26.6
2018-06-05T08:33:01.208Z,26.8
2018-06-05T08:33:50.950Z,27
2018-06-05T08:34:40.770Z,26.9
2018-06-05T08:35:31.648Z,27.3
2018-06-05T08:36:21.423Z,27.1
2018-06-05T08:37:11.783Z,26.8
2018-06-05T08:38:02.510Z,26.5
2018-06-05T08:38:51.913Z,26.6
2018-06-05T08:39:41.430Z,26.6
2018-06-05T08:40:31.778Z,26.9
2018-06-05T08:41:22.140Z,27.2
2018-06-05T08:42:11.963Z,27.4
2018-06-05T08:43:01.955Z,27.6
2018-06-05T08:43:52.287Z,27.8
2018-06-05T08:44:42.078Z,27.6
2018-06-05T08:45:32.406Z,27.8
2018-06-05T08:46:22.222Z,27.4
2018-06-05T08:47:12.266Z,27.1
2018-06-05T08:48:02.674Z,27.3
2018-06-05T08:48:52.673Z,27.5
2018-06-05T08:49:42.485Z,27.4
2018-06-05T08:50:32.563Z,26.9
2018-06-05T08:51:22.314Z,26.8
2018-06-05T08:52:12.371Z,26.8
2018-06-05T08:53:02.991Z,27
2018-06-05T08:53:53.066Z,27
2018-06-05T08:54:42.589Z,26.9
2018-06-05T08:55:32.943Z,26.9
2018-06-05T08:56:23.011Z,27.5
2018-06-05T08:57:13.330Z,27.9
2018-06-05T08:58:03.383Z,28.4
2018-06-05T08:58:53.456Z,27.9
2018-06-05T08:59:43.535Z,28.1
2018-06-05T09:00:33.586Z,28.3
2018-06-05T09:01:22.616Z,28.4
2018-06-05T09:02:13.456Z,28.6
2018-06-05T09:03:03.814Z,28.1
2018-06-05T09:03:53.840Z,27.7
2018-06-05T09:04:43.337Z,27.6
2018-06-05T09:05:33.714Z,27.6
2018-06-05T09:06:24.095Z,27.5
2018-06-05T09:07:14.133Z,28.1
2018-06-05T09:08:03.927Z,28.4
2018-06-05T09:08:53.755Z,28.4
2018-06-05T09:09:44.279Z,28.2
2018-06-05T09:10:33.823Z,28.2
2018-06-05T09:11:24.248Z,28.3
2018-06-05T09:13:04.276Z,28
2018-06-05T09:13:54.640Z,28.5
2018-06-05T09:14:44.419Z,28.6
2018-06-05T09:15:34.742Z,28.1
2018-06-05T09:16:24.253Z,28.5
2018-06-05T09:17:14.886Z,28.4
2018-06-05T09:18:04.687Z,28.6
2018-06-05T09:18:54.705Z,28.6
2018-06-05T09:19:44.813Z,28.3
2018-06-05T09:20:34.916Z,28.3
2018-06-05T09:21:25.230Z,28.1
2018-06-05T09:22:14.999Z,27.6
2018-06-05T09:23:05.057Z,27.6
2018-06-05T09:23:55.390Z,27.5
2018-06-05T09:24:45.457Z,27.9
2018-06-05T09:25:35.237Z,28.3
2018-06-05T09:26:25.616Z,28.6
2018-06-05T09:27:15.359Z,28.6
2018-06-05T09:28:05.465Z,28.6
2018-06-05T09:28:55.878Z,28.6
2018-06-05T09:29:45.821Z,28.7
2018-06-05T09:30:35.618Z,28.8
2018-06-05T09:31:25.694Z,28.7
2018-06-05T09:32:15.752Z,28.8
2018-06-05T09:33:05.827Z,28.7
2018-06-05T09:33:56.167Z,28.7
2018-06-05T09:34:45.933Z,28.3
2018-06-05T09:35:36.318Z,28.3
2018-06-05T09:36:26.361Z,28.1
2018-06-05T09:37:16.437Z,28.4
2018-06-05T09:38:06.219Z,28.1
2018-06-05T09:38:56.594Z,28.2
2018-06-05T09:39:46.353Z,28
2018-06-05T09:40:36.405Z,28.3
2018-06-05T09:41:26.764Z,28.1
2018-06-05T09:42:16.817Z,28.2
2018-06-05T09:43:06.879Z,28.1
2018-06-05T09:43:56.676Z,28.1
2018-06-05T09:44:47.043Z,28.3
2018-06-05T09:45:36.503Z,28.3
2018-06-05T09:46:26.608Z,28.7
2018-06-05T09:47:17.246Z,29.2
2018-06-05T09:48:07.260Z,29.3
2018-06-05T09:48:56.800Z,29.5
2018-06-05T09:49:47.470Z,29.8
2018-06-05T09:50:37.470Z,29.3
2018-06-05T09:51:27.548Z,28.8
2018-06-05T09:52:17.063Z,28.9
2018-06-05T09:53:07.666Z,29
2018-06-05T09:53:57.173Z,28.9
2018-06-05T09:54:47.491Z,29.1
2018-06-05T09:55:37.890Z,28.9
2018-06-05T09:56:27.987Z,28.6
2018-06-05T09:57:18.001Z,28.4
2018-06-05T09:58:07.807Z,28.6
2018-06-05T09:58:57.858Z,28.8
2018-06-05T09:59:47.650Z,28.8
2018-06-05T10:00:37.690Z,28.8
2018-06-05T10:01:27.760Z,29
2018-06-05T10:02:18.111Z,28.9
2018-06-05T10:03:08.470Z,28.6
2018-06-05T10:03:58.949Z,28.8
2018-06-05T10:04:48.604Z,28.8
2018-06-05T10:05:38.397Z,28.9
2018-06-05T10:06:28.706Z,29.2
2018-06-05T10:07:18.525Z,28.9
2018-06-05T10:08:08.842Z,28.8
2018-06-05T10:08:58.904Z,29.4
2018-06-05T10:09:48.951Z,29.4
2018-06-05T10:10:38.752Z,29.8
2018-06-05T10:11:29.084Z,29.6
2018-06-05T10:12:19.175Z,29.7
2018-06-05T10:13:09.228Z,29.6
2018-06-05T10:13:59.050Z,29.6
2018-06-05T10:14:49.055Z,29.6
2018-06-05T10:15:39.442Z,29.9
2018-06-05T10:16:29.534Z,30.1
2018-06-05T10:17:19.549Z,30.4
2018-06-05T10:18:09.348Z,30.1
2018-06-05T10:18:59.394Z,30.1
2018-06-05T10:19:49.492Z,29.8
2018-06-05T10:20:39.533Z,29.2
2018-06-05T10:21:29.315Z,29.4
2018-06-05T10:22:19.655Z,29.5
2018-06-05T10:23:09.750Z,29.4
2018-06-05T10:24:00.065Z,29.6
2018-06-05T10:24:50.134Z,30
2018-06-05T10:25:39.921Z,30.5
2018-06-05T10:26:30.248Z,30.9
2018-06-05T10:27:20.322Z,30.5
2018-06-05T10:28:10.388Z,30.6
2018-06-05T10:28:59.885Z,30.4
2018-06-05T10:29:50.525Z,30.3
2018-06-05T10:30:40.580Z,30.3
2018-06-05T10:31:30.377Z,29.9
2018-06-05T10:32:20.448Z,29.8
2018-06-05T10:33:10.494Z,29.7
2018-06-05T10:34:00.546Z,30.1
2018-06-05T10:34:50.599Z,30.6
2018-06-05T10:35:41.036Z,30.4
2018-06-05T10:36:30.773Z,30.5
2018-06-05T10:37:21.088Z,30.3
2018-06-05T10:38:11.148Z,30.4
2018-06-05T10:39:00.945Z,30.1
2018-06-05T10:39:51.347Z,30.4
2018-06-05T10:40:41.071Z,30.6
2018-06-05T10:41:31.146Z,30.6
2018-06-05T10:42:21.220Z,30.9
2018-06-05T10:43:11.555Z,30.6
2018-06-05T10:44:01.336Z,30.6
2018-06-05T10:44:51.666Z,30.8
2018-06-05T10:45:41.761Z,30.6
2018-06-05T10:46:31.536Z,30.9
2018-06-05T10:47:21.632Z,30.8
2018-06-05T10:48:11.678Z,30.8
2018-06-05T10:49:01.792Z,31
2018-06-05T10:49:51.809Z,31.2
2018-06-05T10:50:41.907Z,31.1
2018-06-05T10:51:31.995Z,30.4
2018-06-05T10:52:22.062Z,30.2
2018-06-05T10:53:12.068Z,30.1
2018-06-05T10:54:02.440Z,30.4
2018-06-05T10:54:52.199Z,30.5
2018-06-05T10:55:42.518Z,30.6
2018-06-05T10:56:32.309Z,30.9
2018-06-05T10:57:22.661Z,30.8
2018-06-05T10:58:12.723Z,30.9
2018-06-05T10:59:02.598Z,30.9
2018-06-05T10:59:52.570Z,30.8
2018-06-05T11:00:42.942Z,30.7
2018-06-05T11:01:33.061Z,30.5
2018-06-05T11:02:22.765Z,30.7
2018-06-05T11:03:12.820Z,30.8
2018-06-05T11:04:02.922Z,30.7
2018-06-05T11:04:52.979Z,30.4
2018-06-05T11:05:43.013Z,30.3
2018-06-05T11:06:33.107Z,30.1
2018-06-05T11:07:23.176Z,30.6
2018-06-05T11:08:13.527Z,30.7
2018-06-05T11:09:03.327Z,31.1
2018-06-05T11:09:53.638Z,31.7
2018-06-05T11:10:43.713Z,31.3
2018-06-05T11:11:33.511Z,31.1
2018-06-05T11:12:23.846Z,31.3
2018-06-05T11:13:13.626Z,31.4